Flight Track Log - Related Links

Times and Time Zones

All times are in EDT time to prevent confusion due to time zone crossing. See the THA215 flight status page for this flight to view local times or setup timezone preferences in your user account.

Time Position Orientation Groundspeed Altitude Reporting Facility
EDT Latitude Longitude Course Direction KTS MPH feet Rate Location/Type
Fri 03:37:32 AM 12.4478 100.1999 203° Southwest  Level Estimated
Fri 03:38:32 AM 12.3409 100.1527 203° Southwest  Level Estimated
Fri 03:39:32 AM 12.2339 100.1056 203° Southwest  Level Estimated
Fri 03:40:32 AM 12.1269 100.0584 203° Southwest  Level Estimated
Fri 03:41:32 AM 12.0199 100.0114 203° Southwest  Level Estimated
Fri 03:42:32 AM 11.9128 99.9643 203° Southwest  Level Estimated
Fri 03:43:32 AM 11.8058 99.9173 203° Southwest  Level Estimated
Fri 03:44:32 AM 11.6988 99.8703 203° Southwest  Level Estimated
Fri 03:45:32 AM 11.5918 99.8234 203° Southwest  Level Estimated
Fri 03:46:32 AM 11.4847 99.7765 203° Southwest  Level Estimated
Fri 03:47:32 AM 11.3777 99.7296 203° Southwest  Level Estimated
Fri 03:48:32 AM 11.2706 99.6827 203° Southwest  Level Estimated
Fri 03:49:32 AM 11.1635 99.6359 203° Southwest  Level Estimated
Fri 03:50:32 AM 11.0564 99.5892 203° Southwest  Level Estimated
Fri 03:51:32 AM 10.9494 99.5424 203° Southwest  Level Estimated
Fri 03:52:32 AM 10.8423 99.4957 203° Southwest  Level Estimated
Fri 03:53:32 AM 10.7352 99.4491 203° Southwest  Level Estimated
Fri 03:54:32 AM 10.6281 99.4025 203° Southwest  Level Estimated
Fri 03:55:32 AM 10.5210 99.3559 203° Southwest  Level Estimated
Fri 03:56:32 AM 10.4138 99.3093 203° Southwest  Level Estimated
Fri 03:57:32 AM 10.3067 99.2627 203° Southwest  Level Estimated
Fri 03:58:32 AM 10.1996 99.2162 203° Southwest  Level Estimated
Fri 03:59:32 AM 10.0925 99.1698 203° Southwest  Level Estimated
Fri 04:00:32 AM 9.9853 99.1233 203° Southwest  Level Estimated
Fri 04:01:32 AM 9.8782 99.0769 203° Southwest  Level Estimated
Fri 04:02:32 AM 9.7710 99.0305 203° Southwest  Level Estimated
Fri 04:03:32 AM 9.6638 98.9842 203° Southwest  Level Estimated
Fri 04:04:32 AM 9.5567 98.9379 203° Southwest  Level Estimated
Fri 04:05:32 AM 9.4495 98.8916 203° Southwest  Level Estimated
Fri 04:06:32 AM 9.3423 98.8453 203° Southwest  Level Estimated
Fri 04:07:32 AM 9.2351 98.7991 203° Southwest  Level Estimated
Fri 04:08:32 AM 9.1279 98.7529 203° Southwest  Level Estimated
Fri 04:09:32 AM 9.0207 98.7067 203° Southwest  Level Estimated
Fri 04:10:32 AM 8.9135 98.6605 203° Southwest  Level Estimated
Fri 04:11:32 AM 8.8063 98.6144 203° Southwest  Level Estimated
Fri 04:12:32 AM 8.6991 98.5683 203° Southwest  Level Estimated
Fri 04:13:32 AM 8.5919 98.5222 203° Southwest  Level Estimated
Fri 04:14:32 AM 8.4847 98.4762 203° Southwest  Level Estimated
Fri 04:15:32 AM 8.3774 98.4302 203° Southwest  Level Estimated
Fri 04:16:32 AM 8.2702 98.3842 203° Southwest  Level Estimated
Fri 04:17:32 AM 8.1629 98.3382 203° Southwest  Level Estimated
Fri 04:18:32 AM 8.0557 98.2922 23° Northeast  Level Estimated
Fri 04:19:32 AM 8.1629 98.3382 203° Southwest  Level Estimated
Fri 04:20:32 AM 8.0557 98.2922 23° Northeast  Level Estimated
Fri 04:21:32 AM 8.1629 98.3382 203° Southwest  Level Estimated
Fri 04:22:32 AM 8.0557 98.2922 23° Northeast  Level Estimated
Fri 04:23:32 AM 8.1629 98.3382 203° Southwest  Level Estimated
Fri 04:24:32 AM 8.0557 98.2922 23° Northeast  Level Estimated
Fri 04:25:32 AM 8.1629 98.3382 203° Southwest  Level Estimated
Fri 04:26:32 AM 8.0557 98.2922 23° Northeast  Level Estimated
Fri 04:27:32 AM 8.1629 98.3382 203° Southwest  Level Estimated
Fri 04:28:32 AM 8.0557 98.2922 23° Northeast  Level Estimated
Fri 04:29:32 AM 8.1629 98.3382 203° Southwest  Level Estimated
Fri 04:30:32 AM 8.0557 98.2922 23° Northeast  Level Estimated
Fri 04:31:32 AM 8.1629 98.3382 203° Southwest  Level Estimated
Fri 04:32:32 AM 8.0557 98.2922 23° Northeast  Level Estimated
Fri 04:33:32 AM 8.1629 98.3382 23° Northeast  Level Estimated

Login

Don't have an account? Register now (free) for customized features, flight alerts, and more!